sensor_id;sensor_type;location;lat;lon;timestamp;P1;durP1;ratioP1;P2;durP2;ratioP2
12437;SDS011;6283;51.330;12.374;2024-02-14T00:01:55;3.93;;;3.23;;
12437;SDS011;6283;51.330;12.374;2024-02-14T00:04:20;5.07;;;3.20;;
12437;SDS011;6283;51.330;12.374;2024-02-14T00:06:46;3.27;;;2.40;;
12437;SDS011;6283;51.330;12.374;2024-02-14T00:09:12;4.37;;;2.83;;
12437;SDS011;6283;51.330;12.374;2024-02-14T00:11:38;4.57;;;2.80;;
12437;SDS011;6283;51.330;12.374;2024-02-14T00:14:03;3.37;;;3.07;;
12437;SDS011;6283;51.330;12.374;2024-02-14T00:16:29;4.87;;;2.87;;
12437;SDS011;6283;51.330;12.374;2024-02-14T00:18:57;4.10;;;2.93;;
12437;SDS011;6283;51.330;12.374;2024-02-14T00:21:23;4.33;;;2.60;;
12437;SDS011;6283;51.330;12.374;2024-02-14T00:23:49;3.67;;;2.67;;
12437;SDS011;6283;51.330;12.374;2024-02-14T00:26:15;4.37;;;3.17;;
12437;SDS011;6283;51.330;12.374;2024-02-14T00:28:41;3.97;;;3.03;;
12437;SDS011;6283;51.330;12.374;2024-02-14T00:31:06;4.53;;;2.87;;
12437;SDS011;6283;51.330;12.374;2024-02-14T00:33:32;6.33;;;2.77;;
12437;SDS011;6283;51.330;12.374;2024-02-14T00:35:58;3.30;;;2.20;;
12437;SDS011;6283;51.330;12.374;2024-02-14T00:38:23;5.40;;;2.57;;
12437;SDS011;6283;51.330;12.374;2024-02-14T00:40:49;4.37;;;2.70;;
12437;SDS011;6283;51.330;12.374;2024-02-14T00:43:14;2.73;;;2.13;;
12437;SDS011;6283;51.330;12.374;2024-02-14T00:45:40;3.80;;;2.80;;
12437;SDS011;6283;51.330;12.374;2024-02-14T00:48:06;3.43;;;2.93;;
12437;SDS011;6283;51.330;12.374;2024-02-14T00:50:32;4.20;;;2.80;;
12437;SDS011;6283;51.330;12.374;2024-02-14T00:52:58;2.77;;;2.50;;
12437;SDS011;6283;51.330;12.374;2024-02-14T00:55:24;4.40;;;2.43;;
12437;SDS011;6283;51.330;12.374;2024-02-14T00:57:50;2.93;;;2.53;;
12437;SDS011;6283;51.330;12.374;2024-02-14T01:00:16;4.10;;;3.00;;
12437;SDS011;6283;51.330;12.374;2024-02-14T01:02:42;4.70;;;2.63;;
12437;SDS011;6283;51.330;12.374;2024-02-14T01:05:08;3.40;;;2.40;;
12437;SDS011;6283;51.330;12.374;2024-02-14T01:07:34;4.13;;;2.50;;
12437;SDS011;6283;51.330;12.374;2024-02-14T01:10:00;4.13;;;2.73;;
12437;SDS011;6283;51.330;12.374;2024-02-14T01:12:25;2.53;;;2.33;;
12437;SDS011;6283;51.330;12.374;2024-02-14T01:14:51;5.47;;;2.90;;
12437;SDS011;6283;51.330;12.374;2024-02-14T01:17:17;3.40;;;2.30;;
12437;SDS011;6283;51.330;12.374;2024-02-14T01:19:42;3.43;;;2.67;;
12437;SDS011;6283;51.330;12.374;2024-02-14T01:22:08;4.57;;;2.63;;
12437;SDS011;6283;51.330;12.374;2024-02-14T01:24:34;4.87;;;2.67;;
12437;SDS011;6283;51.330;12.374;2024-02-14T01:27:00;3.53;;;2.47;;
12437;SDS011;6283;51.330;12.374;2024-02-14T01:29:25;4.20;;;2.30;;
12437;SDS011;6283;51.330;12.374;2024-02-14T01:31:51;3.37;;;2.47;;
12437;SDS011;6283;51.330;12.374;2024-02-14T01:34:17;5.57;;;2.50;;
12437;SDS011;6283;51.330;12.374;2024-02-14T01:36:43;3.47;;;2.17;;
12437;SDS011;6283;51.330;12.374;2024-02-14T01:39:08;2.60;;;2.40;;
12437;SDS011;6283;51.330;12.374;2024-02-14T01:41:43;4.97;;;2.50;;
12437;SDS011;6283;51.330;12.374;2024-02-14T01:44:10;4.37;;;2.63;;
12437;SDS011;6283;51.330;12.374;2024-02-14T01:46:36;4.27;;;2.40;;
12437;SDS011;6283;51.330;12.374;2024-02-14T01:49:02;3.47;;;2.30;;
12437;SDS011;6283;51.330;12.374;2024-02-14T01:51:28;2.93;;;2.00;;
12437;SDS011;6283;51.330;12.374;2024-02-14T01:53:54;2.73;;;2.43;;
12437;SDS011;6283;51.330;12.374;2024-02-14T01:56:21;2.80;;;2.10;;
12437;SDS011;6283;51.330;12.374;2024-02-14T01:58:46;5.67;;;2.63;;
12437;SDS011;6283;51.330;12.374;2024-02-14T02:01:13;3.57;;;2.33;;
12437;SDS011;6283;51.330;12.374;2024-02-14T02:03:39;3.17;;;2.47;;
12437;SDS011;6283;51.330;12.374;2024-02-14T02:06:05;4.10;;;2.30;;
12437;SDS011;6283;51.330;12.374;2024-02-14T02:08:31;3.47;;;2.03;;
12437;SDS011;6283;51.330;12.374;2024-02-14T02:10:58;4.17;;;2.37;;
12437;SDS011;6283;51.330;12.374;2024-02-14T02:13:23;2.23;;;2.03;;
12437;SDS011;6283;51.330;12.374;2024-02-14T02:15:51;3.27;;;2.30;;
12437;SDS011;6283;51.330;12.374;2024-02-14T02:18:20;6.73;;;2.30;;
12437;SDS011;6283;51.330;12.374;2024-02-14T02:20:46;3.27;;;2.43;;
12437;SDS011;6283;51.330;12.374;2024-02-14T02:23:11;3.93;;;2.30;;
12437;SDS011;6283;51.330;12.374;2024-02-14T02:25:41;3.90;;;2.50;;
12437;SDS011;6283;51.330;12.374;2024-02-14T02:28:07;2.37;;;2.17;;
12437;SDS011;6283;51.330;12.374;2024-02-14T02:30:34;2.60;;;2.00;;
12437;SDS011;6283;51.330;12.374;2024-02-14T02:33:00;2.57;;;2.37;;
12437;SDS011;6283;51.330;12.374;2024-02-14T02:35:27;4.07;;;2.60;;
12437;SDS011;6283;51.330;12.374;2024-02-14T02:37:53;3.27;;;2.20;;
12437;SDS011;6283;51.330;12.374;2024-02-14T02:40:19;2.90;;;2.50;;
12437;SDS011;6283;51.330;12.374;2024-02-14T02:42:46;3.33;;;2.37;;
12437;SDS011;6283;51.330;12.374;2024-02-14T02:45:12;3.70;;;2.27;;
12437;SDS011;6283;51.330;12.374;2024-02-14T02:47:38;3.97;;;2.30;;
12437;SDS011;6283;51.330;12.374;2024-02-14T02:50:04;3.23;;;2.40;;
12437;SDS011;6283;51.330;12.374;2024-02-14T02:52:31;3.97;;;2.20;;
12437;SDS011;6283;51.330;12.374;2024-02-14T02:54:56;3.23;;;2.13;;
12437;SDS011;6283;51.330;12.374;2024-02-14T02:57:22;7.27;;;2.67;;
12437;SDS011;6283;51.330;12.374;2024-02-14T02:59:48;2.83;;;2.10;;
12437;SDS011;6283;51.330;12.374;2024-02-14T03:02:14;5.37;;;2.57;;
12437;SDS011;6283;51.330;12.374;2024-02-14T03:04:40;2.47;;;2.23;;
12437;SDS011;6283;51.330;12.374;2024-02-14T03:07:07;4.57;;;2.33;;
12437;SDS011;6283;51.330;12.374;2024-02-14T03:09:34;3.17;;;1.80;;
12437;SDS011;6283;51.330;12.374;2024-02-14T03:12:00;2.57;;;1.60;;
12437;SDS011;6283;51.330;12.374;2024-02-14T03:14:32;1.87;;;1.67;;
12437;SDS011;6283;51.330;12.374;2024-02-14T03:17:01;2.37;;;2.03;;
12437;SDS011;6283;51.330;12.374;2024-02-14T03:19:27;2.33;;;1.93;;
12437;SDS011;6283;51.330;12.374;2024-02-14T03:21:54;4.20;;;1.83;;
12437;SDS011;6283;51.330;12.374;2024-02-14T03:24:20;2.13;;;1.93;;
12437;SDS011;6283;51.330;12.374;2024-02-14T03:26:46;5.17;;;1.80;;
12437;SDS011;6283;51.330;12.374;2024-02-14T03:29:11;3.80;;;1.60;;
12437;SDS011;6283;51.330;12.374;2024-02-14T03:31:37;3.37;;;2.00;;
12437;SDS011;6283;51.330;12.374;2024-02-14T03:34:03;5.17;;;2.10;;
12437;SDS011;6283;51.330;12.374;2024-02-14T03:36:30;2.00;;;1.70;;
12437;SDS011;6283;51.330;12.374;2024-02-14T03:38:59;2.33;;;1.67;;
12437;SDS011;6283;51.330;12.374;2024-02-14T03:41:29;2.17;;;1.90;;
12437;SDS011;6283;51.330;12.374;2024-02-14T03:43:55;3.67;;;1.70;;
12437;SDS011;6283;51.330;12.374;2024-02-14T03:46:23;3.30;;;1.80;;
12437;SDS011;6283;51.330;12.374;2024-02-14T03:48:49;4.30;;;1.70;;
12437;SDS011;6283;51.330;12.374;2024-02-14T03:51:15;1.97;;;1.80;;
12437;SDS011;6283;51.330;12.374;2024-02-14T03:53:41;2.03;;;1.50;;
12437;SDS011;6283;51.330;12.374;2024-02-14T03:56:07;3.53;;;2.07;;
12437;SDS011;6283;51.330;12.374;2024-02-14T03:58:32;3.83;;;2.00;;
12437;SDS011;6283;51.330;12.374;2024-02-14T04:01:05;1.70;;;1.60;;
12437;SDS011;6283;51.330;12.374;2024-02-14T04:03:31;6.23;;;2.20;;
12437;SDS011;6283;51.330;12.374;2024-02-14T04:05:57;2.27;;;1.87;;
12437;SDS011;6283;51.330;12.374;2024-02-14T04:08:23;2.27;;;1.67;;
12437;SDS011;6283;51.330;12.374;2024-02-14T04:10:49;3.27;;;2.10;;
12437;SDS011;6283;51.330;12.374;2024-02-14T04:13:15;2.83;;;1.80;;
12437;SDS011;6283;51.330;12.374;2024-02-14T04:15:41;1.83;;;1.70;;
12437;SDS011;6283;51.330;12.374;2024-02-14T04:18:11;4.07;;;1.90;;
12437;SDS011;6283;51.330;12.374;2024-02-14T04:20:37;2.63;;;1.80;;
12437;SDS011;6283;51.330;12.374;2024-02-14T04:23:03;3.70;;;1.90;;
12437;SDS011;6283;51.330;12.374;2024-02-14T04:25:31;3.30;;;1.60;;
12437;SDS011;6283;51.330;12.374;2024-02-14T04:27:57;3.03;;;1.70;;
12437;SDS011;6283;51.330;12.374;2024-02-14T04:30:24;2.27;;;1.70;;
12437;SDS011;6283;51.330;12.374;2024-02-14T04:32:50;3.23;;;1.80;;
12437;SDS011;6283;51.330;12.374;2024-02-14T04:35:17;2.33;;;1.53;;
12437;SDS011;6283;51.330;12.374;2024-02-14T04:37:45;3.73;;;1.60;;
12437;SDS011;6283;51.330;12.374;2024-02-14T04:40:12;4.80;;;1.43;;
12437;SDS011;6283;51.330;12.374;2024-02-14T04:42:39;1.47;;;1.30;;
12437;SDS011;6283;51.330;12.374;2024-02-14T04:45:05;1.50;;;1.20;;
12437;SDS011;6283;51.330;12.374;2024-02-14T04:47:31;1.70;;;1.50;;
12437;SDS011;6283;51.330;12.374;2024-02-14T04:49:57;2.47;;;1.57;;
12437;SDS011;6283;51.330;12.374;2024-02-14T04:52:22;2.37;;;1.43;;
12437;SDS011;6283;51.330;12.374;2024-02-14T04:54:48;1.93;;;1.33;;
12437;SDS011;6283;51.330;12.374;2024-02-14T04:57:14;3.80;;;1.43;;
12437;SDS011;6283;51.330;12.374;2024-02-14T04:59:40;2.63;;;1.43;;
12437;SDS011;6283;51.330;12.374;2024-02-14T05:02:06;1.90;;;1.30;;
12437;SDS011;6283;51.330;12.374;2024-02-14T05:04:32;2.57;;;1.40;;
12437;SDS011;6283;51.330;12.374;2024-02-14T05:07:00;1.27;;;1.17;;
12437;SDS011;6283;51.330;12.374;2024-02-14T05:09:25;1.40;;;1.30;;
12437;SDS011;6283;51.330;12.374;2024-02-14T05:11:51;1.80;;;1.10;;
12437;SDS011;6283;51.330;12.374;2024-02-14T05:14:17;2.53;;;1.90;;
12437;SDS011;6283;51.330;12.374;2024-02-14T05:16:43;2.53;;;1.50;;
12437;SDS011;6283;51.330;12.374;2024-02-14T05:19:08;2.23;;;1.23;;
12437;SDS011;6283;51.330;12.374;2024-02-14T05:21:34;3.20;;;1.67;;
12437;SDS011;6283;51.330;12.374;2024-02-14T05:24:01;2.47;;;1.53;;
12437;SDS011;6283;51.330;12.374;2024-02-14T05:26:26;1.37;;;1.20;;
12437;SDS011;6283;51.330;12.374;2024-02-14T05:28:52;1.47;;;1.40;;
12437;SDS011;6283;51.330;12.374;2024-02-14T05:31:17;1.67;;;1.30;;
12437;SDS011;6283;51.330;12.374;2024-02-14T05:33:43;2.30;;;1.37;;
12437;SDS011;6283;51.330;12.374;2024-02-14T05:36:09;1.57;;;1.10;;
12437;SDS011;6283;51.330;12.374;2024-02-14T05:38:35;3.00;;;1.17;;
12437;SDS011;6283;51.330;12.374;2024-02-14T05:41:01;1.17;;;1.13;;
12437;SDS011;6283;51.330;12.374;2024-02-14T05:43:26;4.27;;;1.47;;
12437;SDS011;6283;51.330;12.374;2024-02-14T05:45:52;3.53;;;1.60;;
12437;SDS011;6283;51.330;12.374;2024-02-14T05:48:19;1.40;;;1.30;;
12437;SDS011;6283;51.330;12.374;2024-02-14T05:50:45;1.10;;;1.00;;
12437;SDS011;6283;51.330;12.374;2024-02-14T05:53:10;2.90;;;1.20;;
12437;SDS011;6283;51.330;12.374;2024-02-14T05:55:37;2.27;;;1.17;;
12437;SDS011;6283;51.330;12.374;2024-02-14T05:58:03;2.37;;;1.10;;
12437;SDS011;6283;51.330;12.374;2024-02-14T06:00:29;1.63;;;1.13;;
12437;SDS011;6283;51.330;12.374;2024-02-14T06:02:55;1.80;;;1.30;;
12437;SDS011;6283;51.330;12.374;2024-02-14T06:05:21;1.03;;;0.93;;
12437;SDS011;6283;51.330;12.374;2024-02-14T06:07:46;1.77;;;1.27;;
12437;SDS011;6283;51.330;12.374;2024-02-14T06:10:12;1.37;;;1.00;;
12437;SDS011;6283;51.330;12.374;2024-02-14T06:12:38;1.60;;;1.20;;
12437;SDS011;6283;51.330;12.374;2024-02-14T06:15:08;1.70;;;1.20;;
12437;SDS011;6283;51.330;12.374;2024-02-14T06:17:34;2.00;;;1.20;;
12437;SDS011;6283;51.330;12.374;2024-02-14T06:20:00;3.37;;;1.40;;
12437;SDS011;6283;51.330;12.374;2024-02-14T06:22:30;1.20;;;1.10;;
12437;SDS011;6283;51.330;12.374;2024-02-14T06:24:57;1.70;;;1.47;;
12437;SDS011;6283;51.330;12.374;2024-02-14T06:27:23;5.40;;;1.60;;
12437;SDS011;6283;51.330;12.374;2024-02-14T06:29:49;3.33;;;1.67;;
12437;SDS011;6283;51.330;12.374;2024-02-14T06:32:14;1.60;;;1.50;;
12437;SDS011;6283;51.330;12.374;2024-02-14T06:34:40;4.47;;;1.43;;
12437;SDS011;6283;51.330;12.374;2024-02-14T06:37:05;1.10;;;1.00;;
12437;SDS011;6283;51.330;12.374;2024-02-14T06:39:31;1.57;;;1.30;;
12437;SDS011;6283;51.330;12.374;2024-02-14T06:41:57;2.70;;;1.37;;
12437;SDS011;6283;51.330;12.374;2024-02-14T06:44:26;3.23;;;2.03;;
12437;SDS011;6283;51.330;12.374;2024-02-14T06:46:51;3.07;;;1.37;;
12437;SDS011;6283;51.330;12.374;2024-02-14T06:49:17;2.50;;;1.47;;
12437;SDS011;6283;51.330;12.374;2024-02-14T06:51:42;1.47;;;1.13;;
12437;SDS011;6283;51.330;12.374;2024-02-14T06:54:08;1.83;;;1.13;;
12437;SDS011;6283;51.330;12.374;2024-02-14T06:56:34;1.20;;;1.10;;
12437;SDS011;6283;51.330;12.374;2024-02-14T06:59:00;2.97;;;1.30;;
12437;SDS011;6283;51.330;12.374;2024-02-14T07:01:27;3.03;;;1.30;;
12437;SDS011;6283;51.330;12.374;2024-02-14T07:03:53;3.10;;;1.50;;
12437;SDS011;6283;51.330;12.374;2024-02-14T07:06:19;2.57;;;1.50;;
12437;SDS011;6283;51.330;12.374;2024-02-14T07:08:45;3.80;;;1.40;;
12437;SDS011;6283;51.330;12.374;2024-02-14T07:11:12;2.00;;;1.40;;
12437;SDS011;6283;51.330;12.374;2024-02-14T07:13:38;3.30;;;1.37;;
12437;SDS011;6283;51.330;12.374;2024-02-14T07:16:04;2.90;;;1.30;;
12437;SDS011;6283;51.330;12.374;2024-02-14T07:18:30;4.07;;;1.20;;
12437;SDS011;6283;51.330;12.374;2024-02-14T07:20:55;1.87;;;1.27;;
12437;SDS011;6283;51.330;12.374;2024-02-14T07:23:21;4.33;;;1.57;;
12437;SDS011;6283;51.330;12.374;2024-02-14T07:25:46;1.47;;;1.20;;
12437;SDS011;6283;51.330;12.374;2024-02-14T07:28:12;1.40;;;1.30;;
12437;SDS011;6283;51.330;12.374;2024-02-14T07:30:38;2.23;;;1.33;;
12437;SDS011;6283;51.330;12.374;2024-02-14T07:33:03;2.10;;;1.43;;
12437;SDS011;6283;51.330;12.374;2024-02-14T07:35:29;2.53;;;1.30;;
12437;SDS011;6283;51.330;12.374;2024-02-14T07:37:55;2.07;;;1.33;;
12437;SDS011;6283;51.330;12.374;2024-02-14T07:40:21;2.33;;;1.40;;
12437;SDS011;6283;51.330;12.374;2024-02-14T07:42:47;4.73;;;1.70;;
12437;SDS011;6283;51.330;12.374;2024-02-14T07:45:13;3.37;;;1.40;;
12437;SDS011;6283;51.330;12.374;2024-02-14T07:47:39;1.90;;;1.47;;
12437;SDS011;6283;51.330;12.374;2024-02-14T07:50:08;3.63;;;1.53;;
12437;SDS011;6283;51.330;12.374;2024-02-14T07:52:34;2.83;;;1.40;;
12437;SDS011;6283;51.330;12.374;2024-02-14T07:55:01;2.67;;;1.70;;
12437;SDS011;6283;51.330;12.374;2024-02-14T07:57:27;2.07;;;1.63;;
12437;SDS011;6283;51.330;12.374;2024-02-14T07:59:52;4.00;;;2.20;;
12437;SDS011;6283;51.330;12.374;2024-02-14T08:02:19;2.60;;;1.23;;
12437;SDS011;6283;51.330;12.374;2024-02-14T08:04:44;5.77;;;1.60;;
12437;SDS011;6283;51.330;12.374;2024-02-14T08:07:10;1.63;;;1.53;;
12437;SDS011;6283;51.330;12.374;2024-02-14T08:09:36;4.40;;;1.40;;
12437;SDS011;6283;51.330;12.374;2024-02-14T08:12:03;1.57;;;1.43;;
12437;SDS011;6283;51.330;12.374;2024-02-14T08:14:29;2.87;;;1.40;;
12437;SDS011;6283;51.330;12.374;2024-02-14T08:16:55;2.67;;;1.53;;
12437;SDS011;6283;51.330;12.374;2024-02-14T08:19:21;1.50;;;1.40;;
12437;SDS011;6283;51.330;12.374;2024-02-14T08:21:46;1.37;;;1.27;;
12437;SDS011;6283;51.330;12.374;2024-02-14T08:24:12;3.67;;;1.33;;
12437;SDS011;6283;51.330;12.374;2024-02-14T08:26:37;2.97;;;1.50;;
12437;SDS011;6283;51.330;12.374;2024-02-14T08:29:03;1.90;;;1.50;;
12437;SDS011;6283;51.330;12.374;2024-02-14T08:31:29;3.23;;;1.40;;
12437;SDS011;6283;51.330;12.374;2024-02-14T08:33:55;2.17;;;1.30;;
12437;SDS011;6283;51.330;12.374;2024-02-14T08:36:21;3.00;;;1.40;;
12437;SDS011;6283;51.330;12.374;2024-02-14T08:38:47;1.73;;;1.43;;
12437;SDS011;6283;51.330;12.374;2024-02-14T08:41:13;2.23;;;1.40;;
12437;SDS011;6283;51.330;12.374;2024-02-14T08:43:39;5.37;;;1.63;;
12437;SDS011;6283;51.330;12.374;2024-02-14T08:46:09;2.30;;;1.37;;
12437;SDS011;6283;51.330;12.374;2024-02-14T08:48:36;1.13;;;1.10;;
12437;SDS011;6283;51.330;12.374;2024-02-14T08:51:06;1.20;;;1.13;;
12437;SDS011;6283;51.330;12.374;2024-02-14T08:53:34;2.57;;;1.10;;
12437;SDS011;6283;51.330;12.374;2024-02-14T08:55:59;5.27;;;1.93;;
12437;SDS011;6283;51.330;12.374;2024-02-14T08:58:25;2.03;;;1.53;;
12437;SDS011;6283;51.330;12.374;2024-02-14T09:00:50;3.30;;;1.53;;
12437;SDS011;6283;51.330;12.374;2024-02-14T09:03:17;2.67;;;1.43;;
12437;SDS011;6283;51.330;12.374;2024-02-14T09:05:43;2.43;;;1.73;;
12437;SDS011;6283;51.330;12.374;2024-02-14T09:08:09;2.03;;;1.30;;
12437;SDS011;6283;51.330;12.374;2024-02-14T09:10:34;1.53;;;1.23;;
12437;SDS011;6283;51.330;12.374;2024-02-14T09:13:00;5.07;;;1.87;;
12437;SDS011;6283;51.330;12.374;2024-02-14T09:15:27;7.97;;;2.73;;
12437;SDS011;6283;51.330;12.374;2024-02-14T09:17:53;3.73;;;1.63;;
12437;SDS011;6283;51.330;12.374;2024-02-14T09:20:18;3.50;;;1.20;;
12437;SDS011;6283;51.330;12.374;2024-02-14T09:22:45;2.33;;;1.50;;
12437;SDS011;6283;51.330;12.374;2024-02-14T09:25:10;3.37;;;1.40;;
12437;SDS011;6283;51.330;12.374;2024-02-14T09:27:36;2.77;;;1.27;;
12437;SDS011;6283;51.330;12.374;2024-02-14T09:30:02;2.40;;;1.60;;
12437;SDS011;6283;51.330;12.374;2024-02-14T09:32:29;2.83;;;1.33;;
12437;SDS011;6283;51.330;12.374;2024-02-14T09:35:00;1.77;;;1.20;;
12437;SDS011;6283;51.330;12.374;2024-02-14T09:37:28;3.50;;;1.47;;
12437;SDS011;6283;51.330;12.374;2024-02-14T09:39:54;1.90;;;1.30;;
12437;SDS011;6283;51.330;12.374;2024-02-14T09:42:22;2.57;;;1.27;;
12437;SDS011;6283;51.330;12.374;2024-02-14T09:45:18;3.67;;;1.47;;
12437;SDS011;6283;51.330;12.374;2024-02-14T09:47:44;2.20;;;1.30;;
12437;SDS011;6283;51.330;12.374;2024-02-14T09:50:11;1.93;;;1.43;;
12437;SDS011;6283;51.330;12.374;2024-02-14T09:52:37;2.13;;;1.30;;
12437;SDS011;6283;51.330;12.374;2024-02-14T09:55:03;2.40;;;1.77;;
12437;SDS011;6283;51.330;12.374;2024-02-14T09:57:31;2.67;;;1.43;;
12437;SDS011;6283;51.330;12.374;2024-02-14T09:59:58;2.77;;;1.30;;
12437;SDS011;6283;51.330;12.374;2024-02-14T10:02:27;3.00;;;1.40;;
12437;SDS011;6283;51.330;12.374;2024-02-14T10:04:54;3.23;;;1.60;;
12437;SDS011;6283;51.330;12.374;2024-02-14T10:07:20;2.97;;;1.40;;
12437;SDS011;6283;51.330;12.374;2024-02-14T10:09:46;3.27;;;1.80;;
12437;SDS011;6283;51.330;12.374;2024-02-14T10:12:12;2.43;;;1.30;;
12437;SDS011;6283;51.330;12.374;2024-02-14T10:14:38;1.97;;;1.87;;
12437;SDS011;6283;51.330;12.374;2024-02-14T10:17:03;1.80;;;1.20;;
12437;SDS011;6283;51.330;12.374;2024-02-14T10:19:29;3.63;;;1.40;;
12437;SDS011;6283;51.330;12.374;2024-02-14T10:21:58;2.80;;;1.40;;
12437;SDS011;6283;51.330;12.374;2024-02-14T10:24:29;2.33;;;1.37;;
12437;SDS011;6283;51.330;12.374;2024-02-14T10:26:56;1.90;;;1.43;;
12437;SDS011;6283;51.330;12.374;2024-02-14T10:29:24;2.40;;;1.50;;
12437;SDS011;6283;51.330;12.374;2024-02-14T10:31:50;3.13;;;1.47;;
12437;SDS011;6283;51.330;12.374;2024-02-14T10:34:16;4.83;;;1.50;;
12437;SDS011;6283;51.330;12.374;2024-02-14T10:36:43;4.27;;;1.50;;
12437;SDS011;6283;51.330;12.374;2024-02-14T10:39:10;2.20;;;1.30;;
12437;SDS011;6283;51.330;12.374;2024-02-14T10:41:36;1.60;;;1.30;;
12437;SDS011;6283;51.330;12.374;2024-02-14T10:44:02;2.30;;;1.20;;
12437;SDS011;6283;51.330;12.374;2024-02-14T10:46:32;2.83;;;1.40;;
12437;SDS011;6283;51.330;12.374;2024-02-14T10:49:02;1.70;;;1.30;;
12437;SDS011;6283;51.330;12.374;2024-02-14T10:51:32;1.70;;;1.50;;
12437;SDS011;6283;51.330;12.374;2024-02-14T10:54:18;2.73;;;1.33;;
12437;SDS011;6283;51.330;12.374;2024-02-14T10:56:45;1.70;;;1.40;;
12437;SDS011;6283;51.330;12.374;2024-02-14T10:59:17;3.53;;;1.33;;
12437;SDS011;6283;51.330;12.374;2024-02-14T11:01:46;2.10;;;1.20;;
12437;SDS011;6283;51.330;12.374;2024-02-14T11:04:12;3.10;;;1.60;;
12437;SDS011;6283;51.330;12.374;2024-02-14T11:06:48;1.20;;;1.10;;
12437;SDS011;6283;51.330;12.374;2024-02-14T11:09:19;2.63;;;1.43;;
12437;SDS011;6283;51.330;12.374;2024-02-14T11:11:45;1.67;;;1.57;;
12437;SDS011;6283;51.330;12.374;2024-02-14T11:14:14;1.33;;;1.20;;
12437;SDS011;6283;51.330;12.374;2024-02-14T11:16:47;2.10;;;1.40;;
12437;SDS011;6283;51.330;12.374;2024-02-14T11:19:13;3.33;;;2.20;;
12437;SDS011;6283;51.330;12.374;2024-02-14T11:24:11;2.23;;;1.47;;
12437;SDS011;6283;51.330;12.374;2024-02-14T11:26:48;3.10;;;1.50;;
12437;SDS011;6283;51.330;12.374;2024-02-14T11:29:18;4.27;;;1.50;;
12437;SDS011;6283;51.330;12.374;2024-02-14T11:31:44;2.30;;;1.40;;
12437;SDS011;6283;51.330;12.374;2024-02-14T11:34:16;2.13;;;1.37;;
12437;SDS011;6283;51.330;12.374;2024-02-14T11:36:42;2.93;;;1.60;;
12437;SDS011;6283;51.330;12.374;2024-02-14T11:39:09;1.90;;;1.70;;
12437;SDS011;6283;51.330;12.374;2024-02-14T11:41:37;1.70;;;1.33;;
12437;SDS011;6283;51.330;12.374;2024-02-14T11:44:03;2.80;;;1.40;;
12437;SDS011;6283;51.330;12.374;2024-02-14T11:46:34;2.33;;;1.30;;
12437;SDS011;6283;51.330;12.374;2024-02-14T11:49:01;1.93;;;1.30;;
12437;SDS011;6283;51.330;12.374;2024-02-14T11:51:31;1.63;;;1.40;;
12437;SDS011;6283;51.330;12.374;2024-02-14T11:54:00;1.43;;;1.33;;
12437;SDS011;6283;51.330;12.374;2024-02-14T11:56:30;2.70;;;1.60;;
12437;SDS011;6283;51.330;12.374;2024-02-14T11:58:59;3.33;;;1.40;;
12437;SDS011;6283;51.330;12.374;2024-02-14T12:01:27;1.30;;;1.10;;
12437;SDS011;6283;51.330;12.374;2024-02-14T12:04:00;2.37;;;1.30;;
12437;SDS011;6283;51.330;12.374;2024-02-14T12:06:30;1.47;;;1.13;;
12437;SDS011;6283;51.330;12.374;2024-02-14T12:08:59;1.20;;;1.10;;
12437;SDS011;6283;51.330;12.374;2024-02-14T12:11:30;1.60;;;1.50;;
12437;SDS011;6283;51.330;12.374;2024-02-14T12:14:02;0.90;;;0.90;;
12437;SDS011;6283;51.330;12.374;2024-02-14T12:16:28;0.93;;;0.93;;
12437;SDS011;6283;51.330;12.374;2024-02-14T12:19:07;2.40;;;1.17;;
12437;SDS011;6283;51.330;12.374;2024-02-14T12:21:38;1.50;;;0.90;;
12437;SDS011;6283;51.330;12.374;2024-02-14T12:24:08;2.17;;;1.23;;
12437;SDS011;6283;51.330;12.374;2024-02-14T12:26:35;1.27;;;1.10;;
12437;SDS011;6283;51.330;12.374;2024-02-14T12:29:04;0.90;;;0.90;;
12437;SDS011;6283;51.330;12.374;2024-02-14T12:31:31;1.63;;;0.97;;
12437;SDS011;6283;51.330;12.374;2024-02-14T12:33:57;1.10;;;1.00;;
12437;SDS011;6283;51.330;12.374;2024-02-14T12:36:43;1.50;;;1.40;;
12437;SDS011;6283;51.330;12.374;2024-02-14T12:39:08;1.20;;;0.90;;
12437;SDS011;6283;51.330;12.374;2024-02-14T12:41:37;1.23;;;1.20;;
12437;SDS011;6283;51.330;12.374;2024-02-14T12:44:05;1.20;;;1.00;;
12437;SDS011;6283;51.330;12.374;2024-02-14T12:46:31;0.90;;;0.90;;
12437;SDS011;6283;51.330;12.374;2024-02-14T12:48:57;1.73;;;1.20;;
12437;SDS011;6283;51.330;12.374;2024-02-14T12:51:23;2.63;;;1.07;;
12437;SDS011;6283;51.330;12.374;2024-02-14T12:53:53;1.33;;;1.03;;
12437;SDS011;6283;51.330;12.374;2024-02-14T12:56:19;1.67;;;0.97;;
12437;SDS011;6283;51.330;12.374;2024-02-14T12:58:44;1.10;;;1.00;;
12437;SDS011;6283;51.330;12.374;2024-02-14T13:01:11;1.90;;;1.10;;
12437;SDS011;6283;51.330;12.374;2024-02-14T13:03:37;1.17;;;1.07;;
12437;SDS011;6283;51.330;12.374;2024-02-14T13:06:03;1.47;;;0.90;;
12437;SDS011;6283;51.330;12.374;2024-02-14T13:08:28;2.53;;;1.00;;
12437;SDS011;6283;51.330;12.374;2024-02-14T13:10:54;1.00;;;1.00;;
12437;SDS011;6283;51.330;12.374;2024-02-14T13:13:20;1.33;;;1.00;;
12437;SDS011;6283;51.330;12.374;2024-02-14T13:15:45;1.13;;;0.98;;
12437;SDS011;6283;51.330;12.374;2024-02-14T13:18:11;1.03;;;0.97;;
12437;SDS011;6283;51.330;12.374;2024-02-14T13:20:37;0.97;;;0.97;;
12437;SDS011;6283;51.330;12.374;2024-02-14T13:23:03;1.17;;;1.03;;
12437;SDS011;6283;51.330;12.374;2024-02-14T13:25:34;1.73;;;1.00;;
12437;SDS011;6283;51.330;12.374;2024-02-14T13:28:01;1.20;;;1.07;;
12437;SDS011;6283;51.330;12.374;2024-02-14T13:30:27;1.73;;;1.17;;
12437;SDS011;6283;51.330;12.374;2024-02-14T13:32:54;1.10;;;1.00;;
12437;SDS011;6283;51.330;12.374;2024-02-14T13:35:20;1.13;;;0.90;;
12437;SDS011;6283;51.330;12.374;2024-02-14T13:37:47;1.10;;;1.00;;
12437;SDS011;6283;51.330;12.374;2024-02-14T13:40:12;2.83;;;1.20;;
12437;SDS011;6283;51.330;12.374;2024-02-14T13:42:38;1.23;;;1.07;;
12437;SDS011;6283;51.330;12.374;2024-02-14T13:45:04;1.57;;;1.40;;
12437;SDS011;6283;51.330;12.374;2024-02-14T13:47:35;1.03;;;1.03;;
12437;SDS011;6283;51.330;12.374;2024-02-14T13:50:11;1.20;;;1.10;;
12437;SDS011;6283;51.330;12.374;2024-02-14T13:52:37;1.70;;;1.60;;
12437;SDS011;6283;51.330;12.374;2024-02-14T13:55:03;2.43;;;1.10;;
12437;SDS011;6283;51.330;12.374;2024-02-14T13:57:30;1.30;;;1.20;;
12437;SDS011;6283;51.330;12.374;2024-02-14T13:59:59;1.20;;;1.10;;
12437;SDS011;6283;51.330;12.374;2024-02-14T14:02:24;1.53;;;1.30;;
12437;SDS011;6283;51.330;12.374;2024-02-14T14:04:50;1.10;;;1.00;;
12437;SDS011;6283;51.330;12.374;2024-02-14T14:07:18;2.70;;;1.33;;
12437;SDS011;6283;51.330;12.374;2024-02-14T14:09:43;2.63;;;1.20;;
12437;SDS011;6283;51.330;12.374;2024-02-14T14:12:09;1.87;;;1.20;;
12437;SDS011;6283;51.330;12.374;2024-02-14T14:14:36;3.40;;;2.50;;
12437;SDS011;6283;51.330;12.374;2024-02-14T14:17:02;1.97;;;1.30;;
12437;SDS011;6283;51.330;12.374;2024-02-14T14:19:28;1.90;;;1.20;;
12437;SDS011;6283;51.330;12.374;2024-02-14T14:21:53;1.30;;;1.20;;
12437;SDS011;6283;51.330;12.374;2024-02-14T14:24:19;1.47;;;1.10;;
12437;SDS011;6283;51.330;12.374;2024-02-14T14:26:45;1.60;;;1.20;;
12437;SDS011;6283;51.330;12.374;2024-02-14T14:29:11;1.47;;;1.17;;
12437;SDS011;6283;51.330;12.374;2024-02-14T14:31:36;2.60;;;1.67;;
12437;SDS011;6283;51.330;12.374;2024-02-14T14:34:02;1.30;;;1.20;;
12437;SDS011;6283;51.330;12.374;2024-02-14T14:36:28;1.40;;;1.30;;
12437;SDS011;6283;51.330;12.374;2024-02-14T14:38:54;2.00;;;1.20;;
12437;SDS011;6283;51.330;12.374;2024-02-14T14:41:19;2.57;;;1.40;;
12437;SDS011;6283;51.330;12.374;2024-02-14T14:43:45;1.20;;;1.10;;
12437;SDS011;6283;51.330;12.374;2024-02-14T14:46:14;2.30;;;1.33;;
12437;SDS011;6283;51.330;12.374;2024-02-14T14:48:40;1.53;;;1.30;;